createdAt,value
2024-01-19T00:00:34.861Z,101536.50
2024-01-19T00:03:01.617Z,101534.03
2024-01-19T00:05:28.351Z,101526.44
2024-01-19T00:07:55.098Z,101544.53
2024-01-19T00:10:21.804Z,101546.66
2024-01-19T00:12:48.752Z,101539.00
2024-01-19T00:15:15.418Z,101536.25
2024-01-19T00:17:42.172Z,101538.59
2024-01-19T00:20:12.245Z,101531.78
2024-01-19T00:22:38.940Z,101535.09
2024-01-19T00:25:06.032Z,101536.00
2024-01-19T00:27:32.702Z,101534.47
2024-01-19T00:29:59.360Z,101536.38
2024-01-19T00:32:26.135Z,101539.00
2024-01-19T00:34:52.921Z,101531.53
2024-01-19T00:37:19.578Z,101533.28
2024-01-19T00:39:46.212Z,101534.59
2024-01-19T00:42:13.046Z,101532.31
2024-01-19T00:44:39.785Z,101539.53
2024-01-19T00:47:06.512Z,101537.28
2024-01-19T00:49:33.317Z,101540.28
2024-01-19T00:52:00.031Z,101547.59
2024-01-19T00:54:26.683Z,101540.97
2024-01-19T00:56:53.430Z,101536.63
2024-01-19T00:59:20.168Z,101534.13
2024-01-19T01:01:46.899Z,101530.59
2024-01-19T01:04:13.762Z,101533.28
2024-01-19T01:06:40.618Z,101530.22
2024-01-19T01:09:08.721Z,101541.66
2024-01-19T01:11:35.494Z,101536.69
2024-01-19T01:14:02.376Z,101536.06
2024-01-19T01:16:31.345Z,101536.41
2024-01-19T01:18:58.678Z,101536.53
2024-01-19T01:21:26.877Z,101529.78
2024-01-19T01:23:53.769Z,101532.69
2024-01-19T01:26:20.633Z,101534.56
2024-01-19T01:28:47.357Z,101550.59
2024-01-19T01:31:14.128Z,101545.94
2024-01-19T01:33:40.927Z,101543.41
2024-01-19T01:36:07.732Z,101556.38
2024-01-19T01:38:34.677Z,101554.94
2024-01-19T01:41:01.391Z,101550.06
2024-01-19T01:43:28.404Z,101557.13
2024-01-19T01:45:55.152Z,101558.06
2024-01-19T01:48:24.779Z,101545.63
2024-01-19T01:50:52.380Z,101539.75
2024-01-19T01:53:20.452Z,101517.72
2024-01-19T01:55:48.418Z,101512.44
2024-01-19T01:58:17.313Z,101502.88
2024-01-19T02:00:44.908Z,101499.25
2024-01-19T02:03:12.031Z,101490.28
2024-01-19T02:05:39.188Z,101476.06
2024-01-19T02:08:06.419Z,101470.66
2024-01-19T02:10:33.482Z,101466.50
2024-01-19T02:13:00.187Z,101469.44
2024-01-19T02:15:27.458Z,101481.56
2024-01-19T02:17:55.158Z,101478.69
2024-01-19T02:20:22.277Z,101487.03
2024-01-19T02:22:50.402Z,101497.75
2024-01-19T02:25:17.194Z,101498.09
2024-01-19T02:27:43.868Z,101501.09
2024-01-19T02:30:11.985Z,101498.84
2024-01-19T02:32:38.747Z,101515.34
2024-01-19T02:35:06.188Z,101513.69
2024-01-19T02:37:33.341Z,101512.25
2024-01-19T02:40:01.714Z,101520.09
2024-01-19T02:42:31.364Z,101529.75
2024-01-19T02:45:02.437Z,101531.72
2024-01-19T02:47:29.885Z,101528.41
2024-01-19T02:49:57.245Z,101525.81
2024-01-19T02:52:23.950Z,101530.09
2024-01-19T02:54:50.533Z,101529.25
2024-01-19T02:57:17.457Z,101524.06
2024-01-19T02:59:44.177Z,101523.03
2024-01-19T03:02:10.919Z,101507.78
2024-01-19T03:04:37.627Z,101517.84
2024-01-19T03:07:04.562Z,101517.97
2024-01-19T03:09:31.190Z,101511.53
2024-01-19T03:11:57.853Z,101511.53
2024-01-19T03:14:24.548Z,101510.78
2024-01-19T03:16:52.557Z,101510.78
2024-01-19T03:19:19.483Z,101505.31
2024-01-19T03:21:46.333Z,101504.38
2024-01-19T03:24:13.179Z,101498.34
2024-01-19T03:26:40.919Z,101492.44
2024-01-19T03:29:07.686Z,101491.41
2024-01-19T03:31:34.368Z,101492.94
2024-01-19T03:34:01.275Z,101475.13
2024-01-19T03:36:28.162Z,101496.06
2024-01-19T03:38:54.884Z,101492.53
2024-01-19T03:41:21.588Z,101487.34
2024-01-19T03:43:48.246Z,101494.28
2024-01-19T03:46:14.982Z,101489.81
2024-01-19T03:48:41.703Z,101490.53
2024-01-19T03:51:08.401Z,101484.94
2024-01-19T03:53:35.092Z,101481.06
2024-01-19T03:56:01.815Z,101478.16
2024-01-19T03:58:28.538Z,101472.66
2024-01-19T04:00:55.274Z,101472.53
2024-01-19T04:03:22.116Z,101470.78
2024-01-19T04:05:49.124Z,101461.66
2024-01-19T04:08:15.881Z,101470.25
2024-01-19T04:10:42.672Z,101477.34
2024-01-19T04:13:09.356Z,101476.63
2024-01-19T04:15:36.021Z,101482.84
2024-01-19T04:18:02.869Z,101470.09
2024-01-19T04:20:29.601Z,101474.44
2024-01-19T04:22:56.379Z,101485.66
2024-01-19T04:25:23.063Z,101492.72
2024-01-19T04:27:49.712Z,101495.31
2024-01-19T04:30:16.554Z,101498.13
2024-01-19T04:32:43.230Z,101501.63
2024-01-19T04:35:10.004Z,101507.25
2024-01-19T04:37:36.699Z,101508.50
2024-01-19T04:40:03.807Z,101512.13
2024-01-19T04:42:30.496Z,101509.16
2024-01-19T04:44:57.321Z,101509.03
2024-01-19T04:47:24.069Z,101503.84
2024-01-19T04:49:50.728Z,101511.75
2024-01-19T04:52:17.484Z,101508.44
2024-01-19T04:54:44.218Z,101522.44
2024-01-19T04:57:10.971Z,101532.28
2024-01-19T04:59:37.732Z,101528.13
2024-01-19T05:02:04.869Z,101534.44
2024-01-19T05:04:31.630Z,101533.72
2024-01-19T05:06:58.255Z,101545.66
2024-01-19T05:09:24.932Z,101537.56
2024-01-19T05:11:51.657Z,101540.78
2024-01-19T05:14:18.411Z,101526.66
2024-01-19T05:16:45.113Z,101524.78
2024-01-19T05:19:12.009Z,101527.31
2024-01-19T05:21:38.843Z,101531.00
2024-01-19T05:24:05.727Z,101540.97
2024-01-19T05:26:32.534Z,101544.22
2024-01-19T05:28:59.279Z,101548.66
2024-01-19T05:31:26.059Z,101550.44
2024-01-19T05:33:52.832Z,101558.41
2024-01-19T05:36:21.578Z,101569.91
2024-01-19T05:38:48.417Z,101571.88
2024-01-19T05:41:22.812Z,101575.59
2024-01-19T05:43:49.637Z,101578.50
2024-01-19T05:46:16.321Z,101590.09
2024-01-19T05:48:43.177Z,101584.38
2024-01-19T05:51:14.444Z,101588.19
2024-01-19T05:53:41.192Z,101597.97
2024-01-19T05:56:08.261Z,101606.66
2024-01-19T05:58:35.174Z,101609.38
2024-01-19T06:01:04.042Z,101612.88
2024-01-19T06:03:36.953Z,101608.59
2024-01-19T06:06:04.985Z,101616.50
2024-01-19T06:08:32.685Z,101612.22
2024-01-19T06:10:59.770Z,101627.25
2024-01-19T06:13:26.461Z,101631.59
2024-01-19T06:15:53.197Z,101635.41
2024-01-19T06:18:20.495Z,101643.34
2024-01-19T06:20:47.429Z,101648.84
2024-01-19T06:23:14.763Z,101651.59
2024-01-19T06:25:42.029Z,101654.41
2024-01-19T06:28:08.979Z,101664.13
2024-01-19T06:30:35.857Z,101669.41
2024-01-19T06:33:03.962Z,101665.25
2024-01-19T06:35:30.882Z,101663.13
2024-01-19T06:37:57.690Z,101675.13
2024-01-19T06:40:24.343Z,101671.97
2024-01-19T06:42:51.012Z,101676.34
2024-01-19T06:45:17.927Z,101685.13
2024-01-19T06:47:44.970Z,101689.66
2024-01-19T06:50:12.185Z,101699.16
2024-01-19T06:52:39.066Z,101697.59
2024-01-19T06:55:06.779Z,101703.75
2024-01-19T06:57:33.441Z,101704.03
2024-01-19T07:00:00.183Z,101711.06
2024-01-19T07:02:27.015Z,101718.16
2024-01-19T07:04:53.873Z,101728.53
2024-01-19T07:07:20.920Z,101725.31
2024-01-19T07:09:47.651Z,101731.78
2024-01-19T07:12:16.350Z,101728.63
2024-01-19T07:14:43.363Z,101729.63
2024-01-19T07:17:12.322Z,101721.22
2024-01-19T07:19:40.412Z,101723.78
2024-01-19T07:22:07.131Z,101713.38
2024-01-19T07:24:36.598Z,101706.16
2024-01-19T07:27:04.987Z,101687.50
2024-01-19T07:29:32.959Z,101670.81
2024-01-19T07:31:59.819Z,101650.72
2024-01-19T07:34:26.728Z,101640.03
2024-01-19T07:36:53.835Z,101632.00
2024-01-19T07:39:25.087Z,101616.91
2024-01-19T07:41:52.868Z,101612.28
2024-01-19T07:44:19.957Z,101607.94
2024-01-19T07:46:46.998Z,101607.94
2024-01-19T07:49:14.362Z,101608.84
2024-01-19T07:51:42.735Z,101608.03
2024-01-19T07:54:09.935Z,101613.13
2024-01-19T07:56:36.902Z,101613.84
2024-01-19T07:59:03.730Z,101611.97
2024-01-19T08:01:30.528Z,101611.16
2024-01-19T08:03:57.258Z,101615.41
2024-01-19T08:06:24.263Z,101612.16
2024-01-19T08:08:51.063Z,101607.84
2024-01-19T08:11:17.735Z,101604.31
2024-01-19T08:13:44.382Z,101607.66
2024-01-19T08:16:11.099Z,101614.50
2024-01-19T08:18:38.251Z,101600.31
2024-01-19T08:21:05.764Z,101601.16
2024-01-19T08:23:32.582Z,101612.69
2024-01-19T08:26:02.018Z,101602.22
2024-01-19T08:28:28.965Z,101611.25
2024-01-19T08:30:55.592Z,101610.16
2024-01-19T08:33:23.961Z,101603.66
2024-01-19T08:35:51.455Z,101611.13
2024-01-19T08:38:18.713Z,101622.72
2024-01-19T08:40:45.460Z,101623.25
2024-01-19T08:43:12.252Z,101626.19
2024-01-19T08:45:39.276Z,101625.69
2024-01-19T08:48:06.803Z,101616.66
2024-01-19T08:50:33.772Z,101607.75
2024-01-19T08:53:00.562Z,101623.59
2024-01-19T08:55:27.268Z,101626.66
2024-01-19T08:57:54.130Z,101625.31
2024-01-19T09:00:21.316Z,101622.19
2024-01-19T09:02:57.091Z,101620.13
2024-01-19T09:05:29.896Z,101633.09
2024-01-19T09:07:57.237Z,101632.78
2024-01-19T09:10:24.952Z,101645.22
2024-01-19T09:12:51.814Z,101650.72
2024-01-19T09:15:18.964Z,101649.56
2024-01-19T09:17:45.938Z,101659.19
2024-01-19T09:20:13.274Z,101654.28
2024-01-19T09:22:40.210Z,101651.16
2024-01-19T09:25:07.484Z,101659.97
2024-01-19T09:27:34.452Z,101648.94
2024-01-19T09:30:01.339Z,101666.47
2024-01-19T09:32:28.360Z,101676.19
2024-01-19T09:34:55.259Z,101679.09
2024-01-19T09:37:22.060Z,101686.09
2024-01-19T09:39:48.746Z,101684.84
2024-01-19T09:42:28.396Z,101691.72
2024-01-19T09:45:05.909Z,101696.38
2024-01-19T09:47:49.259Z,101705.16
2024-01-19T09:50:20.819Z,101712.41
2024-01-19T09:53:00.287Z,101719.63
2024-01-19T09:55:28.888Z,101719.78
2024-01-19T09:57:57.173Z,101725.47
2024-01-19T10:00:24.495Z,101730.22
2024-01-19T10:02:53.665Z,101734.81
2024-01-19T10:05:22.030Z,101745.84
2024-01-19T10:07:50.836Z,101754.16
2024-01-19T10:10:17.734Z,101767.66
2024-01-19T10:12:44.514Z,101776.78
2024-01-19T10:15:13.233Z,101782.56
2024-01-19T10:17:41.321Z,101784.81
2024-01-19T10:20:12.244Z,101806.25
2024-01-19T10:22:39.264Z,101807.56
2024-01-19T10:25:13.985Z,101808.06
2024-01-19T10:27:51.782Z,101807.72
2024-01-19T10:30:30.315Z,101817.06
2024-01-19T10:33:07.516Z,101819.28
2024-01-19T10:35:37.740Z,101822.59
2024-01-19T10:38:08.656Z,101828.44
2024-01-19T10:40:35.748Z,101834.00
2024-01-19T10:43:02.696Z,101839.00
2024-01-19T10:45:32.854Z,101845.63
2024-01-19T10:48:02.070Z,101844.56
2024-01-19T10:50:29.911Z,101847.75
2024-01-19T10:53:01.283Z,101856.28
2024-01-19T10:55:29.847Z,101856.75
2024-01-19T10:58:07.406Z,101853.81
2024-01-19T11:00:36.685Z,101864.56
2024-01-19T11:03:05.553Z,101873.06
2024-01-19T11:05:34.111Z,101874.53
2024-01-19T11:08:03.478Z,101881.28
2024-01-19T11:10:32.504Z,101883.75
2024-01-19T11:13:01.340Z,101897.41
2024-01-19T11:15:29.267Z,101892.75
2024-01-19T11:17:59.047Z,101895.00
2024-01-19T11:20:26.566Z,101892.75
2024-01-19T11:22:54.208Z,101892.50
2024-01-19T11:25:29.925Z,101907.00
2024-01-19T11:28:17.809Z,101908.31
2024-01-19T11:31:15.513Z,101914.91
2024-01-19T11:33:42.951Z,101919.75
2024-01-19T11:36:10.435Z,101921.31
2024-01-19T11:38:41.836Z,101921.78
2024-01-19T11:41:08.490Z,101923.19
2024-01-19T11:43:39.451Z,101922.09
2024-01-19T11:46:10.815Z,101933.97
2024-01-19T11:48:47.120Z,101930.16
2024-01-19T11:51:34.988Z,101928.75
2024-01-19T11:54:05.872Z,101931.66
2024-01-19T11:56:32.877Z,101923.50
2024-01-19T11:59:00.035Z,101921.47
2024-01-19T12:01:26.781Z,101913.41
2024-01-19T12:03:55.222Z,101913.97
2024-01-19T12:06:23.213Z,101921.28
2024-01-19T12:09:08.289Z,101917.47
2024-01-19T12:11:35.581Z,101919.03
2024-01-19T12:14:05.924Z,101918.91
2024-01-19T12:16:33.498Z,101929.56
2024-01-19T12:19:00.741Z,101925.97
2024-01-19T12:21:28.031Z,101922.44
2024-01-19T12:23:58.975Z,101921.34
2024-01-19T12:26:26.053Z,101929.88
2024-01-19T12:28:54.356Z,101938.41
2024-01-19T12:31:22.699Z,101944.31
2024-01-19T12:33:49.560Z,101926.03
2024-01-19T12:36:19.033Z,101929.00
2024-01-19T12:38:45.765Z,101931.25
2024-01-19T12:41:19.326Z,101934.69
2024-01-19T12:43:46.086Z,101936.31
2024-01-19T12:46:15.601Z,101935.22
2024-01-19T12:48:42.495Z,101938.66
2024-01-19T12:51:09.710Z,101934.16
2024-01-19T12:53:36.631Z,101941.75
2024-01-19T12:56:30.891Z,101939.13
2024-01-19T12:59:13.057Z,101936.13
2024-01-19T13:01:43.527Z,101942.06
2024-01-19T13:04:11.353Z,101949.81
2024-01-19T13:06:45.454Z,101948.13
2024-01-19T13:09:16.063Z,101947.84
2024-01-19T13:11:42.838Z,101951.56
2024-01-19T13:14:09.731Z,101943.97
2024-01-19T13:16:53.399Z,101933.41
2024-01-19T13:19:20.251Z,101925.56
2024-01-19T13:21:47.166Z,101922.69
2024-01-19T13:24:13.898Z,101912.25
2024-01-19T13:26:40.627Z,101912.25
2024-01-19T13:29:08.206Z,101897.38
2024-01-19T13:31:35.032Z,101892.16
2024-01-19T13:34:01.929Z,101885.00
2024-01-19T13:36:28.664Z,101871.94
2024-01-19T13:38:55.448Z,101863.88
2024-01-19T13:41:22.103Z,101853.28
2024-01-19T13:43:49.138Z,101842.13
2024-01-19T13:46:15.903Z,101824.09
2024-01-19T13:48:43.472Z,101811.84
2024-01-19T13:51:10.595Z,101787.50
2024-01-19T13:53:37.311Z,101776.25
2024-01-19T13:56:04.844Z,101750.13
2024-01-19T13:58:31.783Z,101739.69
2024-01-19T14:00:58.793Z,101724.94
2024-01-19T14:03:25.933Z,101720.28
2024-01-19T14:05:52.804Z,101706.25
2024-01-19T14:08:20.657Z,101681.06
2024-01-19T14:10:50.296Z,101663.63
2024-01-19T14:13:18.661Z,101629.81
2024-01-19T14:15:52.201Z,101616.75
2024-01-19T14:18:19.737Z,101587.16
2024-01-19T14:20:47.942Z,101567.25
2024-01-19T14:23:14.931Z,101563.81
2024-01-19T14:25:41.954Z,101541.91
2024-01-19T14:28:10.869Z,101515.00
2024-01-19T14:30:37.746Z,101489.03
2024-01-19T14:33:04.998Z,101458.66
2024-01-19T14:35:31.865Z,101433.47
2024-01-19T14:37:58.597Z,101430.88
2024-01-19T14:40:25.350Z,101443.94
2024-01-19T14:42:54.681Z,101452.72
2024-01-19T14:45:23.768Z,101420.16
2024-01-19T14:47:50.635Z,101419.06
2024-01-19T14:50:17.644Z,101416.56
2024-01-19T14:52:45.855Z,101410.66
2024-01-19T14:55:14.359Z,101374.34
2024-01-19T14:57:41.151Z,101379.72
2024-01-19T15:00:09.692Z,101375.63
2024-01-19T15:02:37.553Z,101355.69
2024-01-19T15:05:05.437Z,101337.56
2024-01-19T15:07:35.553Z,101301.28
2024-01-19T15:10:05.047Z,101304.88
2024-01-19T15:12:31.962Z,101296.19
2024-01-19T15:14:58.687Z,101271.19
2024-01-19T15:17:25.481Z,101270.38
2024-01-19T15:19:53.975Z,101252.53
2024-01-19T15:22:23.773Z,101268.03
2024-01-19T15:24:50.890Z,101269.97
2024-01-19T15:27:17.508Z,101276.03
2024-01-19T15:29:44.315Z,101264.19
2024-01-19T15:32:13.745Z,101234.81
2024-01-19T15:34:41.825Z,101222.59
2024-01-19T15:37:12.686Z,101207.34
2024-01-19T15:39:43.735Z,101201.44
2024-01-19T15:42:10.909Z,101206.78
2024-01-19T15:44:37.532Z,101210.38
2024-01-19T15:47:04.664Z,101197.78
2024-01-19T15:49:31.488Z,101180.63
2024-01-19T15:51:58.321Z,101193.78
2024-01-19T15:54:25.089Z,101182.94
2024-01-19T15:56:51.828Z,101150.47
2024-01-19T15:59:19.096Z,101119.41
2024-01-19T16:01:46.075Z,101115.28
2024-01-19T16:04:13.409Z,101098.97
2024-01-19T16:06:40.193Z,101110.63
2024-01-19T16:09:07.524Z,101105.00
2024-01-19T16:11:35.986Z,101102.84
2024-01-19T16:14:04.186Z,101111.78
2024-01-19T16:16:31.561Z,101097.50
2024-01-19T16:19:00.215Z,101097.13
2024-01-19T16:21:27.690Z,101108.94
2024-01-19T16:23:54.535Z,101098.13
2024-01-19T16:26:25.212Z,101110.59
2024-01-19T16:28:53.828Z,101118.00
2024-01-19T16:31:21.982Z,101114.22
2024-01-19T16:33:49.832Z,101100.75
2024-01-19T16:36:17.106Z,101106.50
2024-01-19T16:38:46.364Z,101097.44
2024-01-19T16:41:13.399Z,101094.75
2024-01-19T16:43:40.160Z,101110.66
2024-01-19T16:46:06.828Z,101118.97
2024-01-19T16:48:33.700Z,101121.19
2024-01-19T16:51:01.007Z,101113.78
2024-01-19T16:53:27.992Z,101118.47
2024-01-19T16:55:57.435Z,101125.84
2024-01-19T16:58:24.285Z,101133.53
2024-01-19T17:00:51.876Z,101153.78
2024-01-19T17:03:18.814Z,101159.53
2024-01-19T17:05:45.644Z,101174.16
2024-01-19T17:08:13.393Z,101193.88
2024-01-19T17:10:40.277Z,101213.19
2024-01-19T17:13:07.024Z,101217.25
2024-01-19T17:15:33.692Z,101240.81
2024-01-19T17:18:00.600Z,101247.34
2024-01-19T17:20:28.544Z,101271.28
2024-01-19T17:22:55.773Z,101270.44
2024-01-19T17:25:24.059Z,101290.34
2024-01-19T17:27:51.365Z,101305.88
2024-01-19T17:30:21.167Z,101322.69
2024-01-19T17:32:48.556Z,101327.56
2024-01-19T17:35:15.731Z,101346.84
2024-01-19T17:37:42.836Z,101376.72
2024-01-19T17:40:09.987Z,101386.91
2024-01-19T17:42:36.759Z,101410.97
2024-01-19T17:45:15.657Z,101439.78
2024-01-19T17:47:52.849Z,101446.63
2024-01-19T17:50:21.304Z,101467.66
2024-01-19T17:52:49.650Z,101474.38
2024-01-19T17:55:16.657Z,101486.88
2024-01-19T17:57:45.462Z,101500.47
2024-01-19T18:00:13.187Z,101522.53
2024-01-19T18:02:39.886Z,101528.19
2024-01-19T18:05:07.259Z,101550.00
2024-01-19T18:07:34.927Z,101569.50
2024-01-19T18:10:01.832Z,101588.09
2024-01-19T18:12:29.876Z,101614.28
2024-01-19T18:14:57.229Z,101646.50
2024-01-19T18:17:23.985Z,101660.63
2024-01-19T18:19:51.152Z,101668.44
2024-01-19T18:22:20.302Z,101675.63
2024-01-19T18:24:48.584Z,101694.84
2024-01-19T18:27:16.886Z,101716.38
2024-01-19T18:29:44.528Z,101733.19
2024-01-19T18:32:15.777Z,101733.31
2024-01-19T18:34:42.975Z,101748.78
2024-01-19T18:37:09.683Z,101764.56
2024-01-19T18:39:36.381Z,101779.53
2024-01-19T18:42:03.200Z,101777.13
2024-01-19T18:44:30.837Z,101786.03
2024-01-19T18:46:57.559Z,101791.66
2024-01-19T18:49:24.927Z,101804.00
2024-01-19T18:51:51.826Z,101811.06
2024-01-19T18:54:19.803Z,101822.59
2024-01-19T18:56:46.642Z,101831.22
2024-01-19T18:59:15.604Z,101846.78
2024-01-19T19:01:43.360Z,101841.69
2024-01-19T19:04:11.084Z,101838.25
2024-01-19T19:06:38.586Z,101845.41
2024-01-19T19:09:05.527Z,101853.41
2024-01-19T19:11:33.793Z,101866.47
2024-01-19T19:14:01.270Z,101878.63
2024-01-19T19:16:36.827Z,101882.25
2024-01-19T19:19:13.570Z,101887.56
2024-01-19T19:21:40.965Z,101897.13
2024-01-19T19:24:07.880Z,101909.25
2024-01-19T19:26:34.722Z,101906.75
2024-01-19T19:29:01.454Z,101914.63
2024-01-19T19:31:28.304Z,101914.75
2024-01-19T19:33:55.314Z,101920.97
2024-01-19T19:36:22.453Z,101920.00
2024-01-19T19:38:49.132Z,101943.47
2024-01-19T19:41:16.262Z,101945.22
2024-01-19T19:43:43.017Z,101947.94
2024-01-19T19:46:14.098Z,101954.56
2024-01-19T19:48:41.550Z,101953.84
2024-01-19T19:51:08.246Z,101940.88
2024-01-19T19:53:34.958Z,101923.63
2024-01-19T19:56:01.773Z,101923.13
2024-01-19T19:58:28.553Z,101906.47
2024-01-19T20:01:01.675Z,101895.75
2024-01-19T20:03:32.220Z,101897.69
2024-01-19T20:05:58.848Z,101898.63
2024-01-19T20:08:25.633Z,101896.94
2024-01-19T20:10:52.601Z,101899.72
2024-01-19T20:13:19.471Z,101889.47
2024-01-19T20:15:46.409Z,101889.56
2024-01-19T20:18:13.395Z,101880.28
2024-01-19T20:20:40.734Z,101883.91
2024-01-19T20:23:07.816Z,101880.69
2024-01-19T20:25:34.815Z,101886.97
2024-01-19T20:28:01.796Z,101894.97
2024-01-19T20:30:28.523Z,101901.91
2024-01-19T20:32:55.495Z,101901.25
2024-01-19T20:35:22.855Z,101898.75
2024-01-19T20:37:51.142Z,101904.97
2024-01-19T20:40:20.372Z,101911.06
2024-01-19T20:42:47.070Z,101920.88
2024-01-19T20:45:14.735Z,101932.94
2024-01-19T20:47:41.745Z,101947.81
2024-01-19T20:50:10.286Z,101946.16
2024-01-19T20:52:38.295Z,101944.50
2024-01-19T20:55:06.334Z,101941.06
2024-01-19T20:57:33.147Z,101945.50
2024-01-19T21:00:00.159Z,101950.78
2024-01-19T21:02:27.942Z,101953.44
2024-01-19T21:04:56.322Z,101956.44
2024-01-19T21:07:23.261Z,101962.34
2024-01-19T21:09:50.347Z,101974.66
2024-01-19T21:12:17.272Z,101968.81
2024-01-19T21:14:44.371Z,101980.09
2024-01-19T21:17:11.411Z,101990.69
2024-01-19T21:19:38.212Z,102001.75
2024-01-19T21:22:06.600Z,102000.00
2024-01-19T21:24:34.377Z,102014.72
2024-01-19T21:27:01.201Z,102015.63
2024-01-19T21:29:27.927Z,102014.00
2024-01-19T21:31:54.641Z,102005.47
2024-01-19T21:34:21.428Z,102019.44
2024-01-19T21:36:48.089Z,102023.88
2024-01-19T21:39:14.860Z,102019.81
2024-01-19T21:41:49.140Z,102021.56
2024-01-19T21:44:16.402Z,102026.00
2024-01-19T21:46:46.179Z,102039.84
2024-01-19T21:49:13.002Z,102038.19
2024-01-19T21:51:40.045Z,102045.97
2024-01-19T21:54:07.277Z,102041.81
2024-01-19T21:56:34.251Z,102041.88
2024-01-19T21:59:01.049Z,102058.19
2024-01-19T22:01:27.890Z,102054.66
2024-01-19T22:03:55.079Z,102060.78
2024-01-19T22:06:22.153Z,102061.56
2024-01-19T22:08:49.183Z,102063.44
2024-01-19T22:11:16.915Z,102073.72
2024-01-19T22:13:43.682Z,102085.91
2024-01-19T22:16:10.404Z,102094.78
2024-01-19T22:18:39.706Z,102099.94
2024-01-19T22:21:06.930Z,102106.81
2024-01-19T22:23:35.453Z,102116.22
2024-01-19T22:26:02.309Z,102117.97
2024-01-19T22:28:34.961Z,102119.66
2024-01-19T22:31:02.912Z,102126.53
2024-01-19T22:33:30.207Z,102129.13
2024-01-19T22:36:04.022Z,102125.69
2024-01-19T22:38:37.588Z,102127.34
2024-01-19T22:41:04.764Z,102131.72
2024-01-19T22:43:31.693Z,102135.19
2024-01-19T22:45:58.754Z,102132.72
2024-01-19T22:48:25.703Z,102143.72
2024-01-19T22:50:52.546Z,102144.56
2024-01-19T22:53:20.337Z,102146.31
2024-01-19T22:55:47.394Z,102142.72
2024-01-19T22:58:14.192Z,102141.88
2024-01-19T23:00:41.335Z,102137.69
2024-01-19T23:03:08.069Z,102135.03
2024-01-19T23:05:34.941Z,102133.34
2024-01-19T23:08:01.872Z,102132.50
2024-01-19T23:10:28.498Z,102132.63
2024-01-19T23:12:57.137Z,102132.72
2024-01-19T23:15:23.927Z,102125.75
2024-01-19T23:17:50.668Z,102134.38
2024-01-19T23:20:17.594Z,102137.78
2024-01-19T23:22:44.906Z,102144.66
2024-01-19T23:25:19.311Z,102142.88
2024-01-19T23:27:50.310Z,102135.09
2024-01-19T23:30:17.145Z,102137.69
2024-01-19T23:32:43.880Z,102131.72
2024-01-19T23:35:10.773Z,102133.34
2024-01-19T23:37:39.403Z,102138.53
2024-01-19T23:40:06.876Z,102140.13
2024-01-19T23:42:33.703Z,102145.41
2024-01-19T23:45:01.824Z,102142.81
2024-01-19T23:47:29.113Z,102137.63
2024-01-19T23:49:56.026Z,102135.09
2024-01-19T23:52:22.663Z,102132.50
2024-01-19T23:54:49.326Z,102127.44
2024-01-19T23:57:16.067Z,102126.69
2024-01-19T23:59:43.666Z,102119.81
